createdAt,value
2022-09-15T00:01:10.099Z,64.02
2022-09-15T00:03:38.371Z,64.84
2022-09-15T00:06:06.016Z,65.69
2022-09-15T00:08:33.809Z,65.68
2022-09-15T00:11:15.808Z,68.50
2022-09-15T00:13:44.137Z,67.23
2022-09-15T00:16:15.277Z,67.56
2022-09-15T00:18:44.326Z,68.26
2022-09-15T00:21:15.148Z,68.04
2022-09-15T00:23:43.064Z,69.15
2022-09-15T00:26:12.621Z,69.09
2022-09-15T00:28:40.835Z,68.62
2022-09-15T00:31:11.381Z,68.58
2022-09-15T00:33:38.941Z,69.43
2022-09-15T00:36:08.514Z,69.32
2022-09-15T00:38:36.685Z,69.33
2022-09-15T00:41:05.649Z,69.08
2022-09-15T00:44:00.518Z,69.76
2022-09-15T00:46:33.795Z,70.63
2022-09-15T00:49:24.986Z,70.47
2022-09-15T00:51:58.966Z,71.76
2022-09-15T00:54:35.227Z,71.10
2022-09-15T00:57:05.721Z,70.75
2022-09-15T00:59:41.544Z,70.64
2022-09-15T01:02:16.852Z,69.95
2022-09-15T01:04:44.725Z,70.84
2022-09-15T01:07:15.028Z,71.08
2022-09-15T01:09:58.497Z,70.99
2022-09-15T01:12:27.486Z,71.99
2022-09-15T01:14:54.975Z,71.58
2022-09-15T01:17:45.816Z,71.32
2022-09-15T01:20:37.572Z,70.90
2022-09-15T01:23:23.523Z,70.24
2022-09-15T01:26:30.236Z,70.61
2022-09-15T01:29:26.297Z,71.00
2022-09-15T01:32:26.683Z,71.48
2022-09-15T01:35:17.277Z,71.13
2022-09-15T01:37:51.805Z,70.99
2022-09-15T01:40:20.447Z,71.43
2022-09-15T01:42:50.354Z,70.20
2022-09-15T01:45:25.170Z,69.82
2022-09-15T01:47:54.734Z,70.19
2022-09-15T01:50:25.078Z,69.80
2022-09-15T01:52:54.944Z,70.81
2022-09-15T01:55:32.032Z,69.60
2022-09-15T01:57:59.796Z,69.84
2022-09-15T02:00:27.221Z,70.40
2022-09-15T02:03:05.104Z,70.19
2022-09-15T02:05:37.100Z,70.42
2022-09-15T02:08:24.217Z,69.91
2022-09-15T02:10:57.603Z,70.03
2022-09-15T02:13:34.129Z,69.03
2022-09-15T02:16:02.381Z,69.01
2022-09-15T02:18:35.901Z,68.72
2022-09-15T02:21:14.120Z,68.04
2022-09-15T02:23:44.868Z,68.59
2022-09-15T02:26:17.487Z,67.53
2022-09-15T02:28:45.673Z,67.23
2022-09-15T02:31:15.353Z,66.18
2022-09-15T02:33:47.941Z,67.41
2022-09-15T02:36:19.949Z,67.37
2022-09-15T02:38:51.283Z,67.22
2022-09-15T02:41:19.385Z,65.79
2022-09-15T02:43:48.089Z,67.01
2022-09-15T02:46:17.111Z,66.62
2022-09-15T02:48:45.058Z,66.49
2022-09-15T02:51:12.727Z,65.91
2022-09-15T02:53:40.425Z,65.28
2022-09-15T02:56:08.317Z,65.30
2022-09-15T02:58:35.931Z,65.04
2022-09-15T03:01:05.070Z,65.40
2022-09-15T03:03:34.148Z,65.41
2022-09-15T03:06:21.327Z,65.43
2022-09-15T03:08:56.634Z,65.21
2022-09-15T03:11:26.935Z,65.38
2022-09-15T03:13:56.523Z,65.52
2022-09-15T03:16:24.673Z,66.17
2022-09-15T03:18:54.359Z,66.52
2022-09-15T03:21:23.076Z,66.52
2022-09-15T03:23:50.643Z,66.56
2022-09-15T03:26:18.248Z,66.70
2022-09-15T03:28:46.053Z,66.96
2022-09-15T03:31:13.821Z,66.87
2022-09-15T03:33:41.318Z,66.86
2022-09-15T03:36:09.449Z,67.06
2022-09-15T03:38:37.023Z,67.48
2022-09-15T03:41:07.781Z,67.65
2022-09-15T03:43:36.320Z,68.10
2022-09-15T03:46:05.316Z,68.39
2022-09-15T03:48:35.181Z,68.19
2022-09-15T03:51:04.563Z,68.00
2022-09-15T03:53:33.566Z,69.17
2022-09-15T03:56:31.815Z,69.31
2022-09-15T03:59:01.800Z,69.31
2022-09-15T04:01:30.375Z,69.40
2022-09-15T04:03:58.752Z,69.87
2022-09-15T04:06:26.701Z,69.38
2022-09-15T04:08:54.826Z,70.00
2022-09-15T04:11:23.034Z,69.56
2022-09-15T04:13:50.637Z,68.76
2022-09-15T04:16:20.191Z,68.70
2022-09-15T04:18:48.002Z,68.33
2022-09-15T04:21:18.967Z,68.52
2022-09-15T04:23:51.579Z,69.10
2022-09-15T04:26:32.431Z,68.97
2022-09-15T04:29:04.254Z,68.48
2022-09-15T04:31:33.448Z,68.30
2022-09-15T04:34:01.051Z,68.29
2022-09-15T04:36:30.263Z,68.60
2022-09-15T04:38:59.131Z,70.44
2022-09-15T04:41:27.207Z,69.63
2022-09-15T04:43:55.398Z,68.60
2022-09-15T04:46:23.389Z,69.88
2022-09-15T04:48:51.975Z,69.89
2022-09-15T04:51:21.561Z,69.59
2022-09-15T04:53:50.369Z,68.99
2022-09-15T04:56:23.071Z,68.87
2022-09-15T04:59:03.493Z,67.97
2022-09-15T05:01:35.250Z,68.54
2022-09-15T05:04:04.683Z,69.55
2022-09-15T05:06:33.259Z,68.99
2022-09-15T05:09:01.108Z,69.32
2022-09-15T05:11:31.090Z,69.85
2022-09-15T05:13:59.377Z,69.95
2022-09-15T05:16:29.225Z,69.79
2022-09-15T05:18:59.569Z,71.28
2022-09-15T05:21:27.799Z,71.62
2022-09-15T05:23:55.519Z,70.67
2022-09-15T05:26:26.411Z,70.20
2022-09-15T05:28:55.021Z,69.76
2022-09-15T05:31:31.526Z,71.58
2022-09-15T05:34:01.078Z,69.69
2022-09-15T05:36:28.948Z,69.67
2022-09-15T05:38:56.836Z,69.97
2022-09-15T05:41:25.749Z,69.50
2022-09-15T05:43:55.308Z,70.01
2022-09-15T05:46:26.032Z,69.27
2022-09-15T05:48:56.237Z,68.76
2022-09-15T05:51:23.965Z,69.00
2022-09-15T05:53:51.720Z,68.67
2022-09-15T05:56:20.283Z,69.27
2022-09-15T05:58:48.859Z,68.92
2022-09-15T06:01:20.578Z,68.57
2022-09-15T06:03:49.183Z,68.71
2022-09-15T06:06:17.637Z,68.71
2022-09-15T06:08:50.047Z,70.21
2022-09-15T06:11:22.523Z,70.81
2022-09-15T06:13:50.332Z,69.63
2022-09-15T06:16:20.306Z,69.33
2022-09-15T06:18:49.565Z,69.26
2022-09-15T06:21:19.782Z,69.39
2022-09-15T06:23:50.795Z,68.82
2022-09-15T06:26:19.234Z,68.62
2022-09-15T06:28:51.813Z,68.36
2022-09-15T06:31:21.178Z,68.58
2022-09-15T06:33:54.152Z,68.05
2022-09-15T06:36:24.944Z,67.27
2022-09-15T06:38:53.774Z,67.15
2022-09-15T06:41:21.542Z,67.29
2022-09-15T06:43:49.604Z,67.08
2022-09-15T06:46:20.817Z,67.56
2022-09-15T06:48:49.004Z,68.20
2022-09-15T06:51:20.564Z,67.16
2022-09-15T06:53:48.250Z,67.08
2022-09-15T06:56:18.421Z,67.78
2022-09-15T06:58:48.946Z,66.92
2022-09-15T07:01:43.127Z,67.31
2022-09-15T07:04:11.236Z,68.01
2022-09-15T07:06:39.591Z,68.12
2022-09-15T07:09:07.118Z,68.24
2022-09-15T07:11:35.023Z,68.55
2022-09-15T07:14:02.592Z,67.18
2022-09-15T07:16:30.359Z,68.23
2022-09-15T07:19:01.318Z,67.96
2022-09-15T07:21:28.846Z,67.54
2022-09-15T07:23:57.656Z,68.02
2022-09-15T07:26:27.313Z,68.34
2022-09-15T07:28:56.800Z,69.53
2022-09-15T07:31:26.461Z,68.66
2022-09-15T07:33:54.685Z,67.57
2022-09-15T07:36:22.260Z,67.31
2022-09-15T07:38:50.068Z,66.29
2022-09-15T07:41:22.559Z,66.56
2022-09-15T07:43:54.698Z,66.28
2022-09-15T07:46:24.035Z,66.35
2022-09-15T07:48:53.465Z,65.41
2022-09-15T07:51:21.012Z,64.78
2022-09-15T07:53:49.474Z,65.47
2022-09-15T07:56:20.766Z,63.81
2022-09-15T07:58:49.008Z,64.29
2022-09-15T08:01:18.312Z,64.76
2022-09-15T08:03:51.964Z,64.85
2022-09-15T08:06:23.072Z,64.12
2022-09-15T08:08:55.112Z,62.46
2022-09-15T08:11:26.702Z,62.70
2022-09-15T08:13:54.538Z,61.66
2022-09-15T08:16:23.496Z,62.78
2022-09-15T08:18:52.678Z,61.68
2022-09-15T08:21:22.010Z,62.19
2022-09-15T08:23:55.300Z,62.27
2022-09-15T08:26:23.985Z,60.46
2022-09-15T08:28:52.024Z,60.91
2022-09-15T08:31:19.657Z,59.94
2022-09-15T08:33:48.746Z,59.96
2022-09-15T08:36:16.229Z,57.47
2022-09-15T08:38:45.092Z,55.36
2022-09-15T08:41:14.706Z,56.70
2022-09-15T08:43:47.792Z,56.66
2022-09-15T08:46:21.301Z,57.81
2022-09-15T08:49:02.737Z,57.12
2022-09-15T08:51:42.121Z,56.57
2022-09-15T08:54:22.426Z,56.65
2022-09-15T08:56:50.769Z,54.66
2022-09-15T08:59:19.622Z,54.22
2022-09-15T09:02:02.799Z,54.51
2022-09-15T09:04:36.843Z,54.50
2022-09-15T09:07:04.342Z,52.89
2022-09-15T09:09:54.293Z,51.37
2022-09-15T09:12:24.892Z,50.95
2022-09-15T09:15:07.829Z,51.77
2022-09-15T09:17:42.470Z,50.89
2022-09-15T09:20:19.388Z,49.65
2022-09-15T09:22:48.735Z,49.79
2022-09-15T09:25:27.240Z,49.26
2022-09-15T09:27:58.287Z,49.05
2022-09-15T09:30:28.012Z,52.91
2022-09-15T09:33:29.918Z,49.43
2022-09-15T09:36:01.255Z,49.83
2022-09-15T09:38:31.795Z,48.87
2022-09-15T09:41:02.257Z,48.54
2022-09-15T09:43:31.209Z,49.02
2022-09-15T09:45:59.411Z,48.03
2022-09-15T09:48:28.200Z,49.02
2022-09-15T09:50:56.322Z,47.25
2022-09-15T09:53:32.781Z,46.73
2022-09-15T09:56:13.071Z,46.07
2022-09-15T09:58:40.859Z,45.41
2022-09-15T10:01:13.875Z,44.77
2022-09-15T10:03:43.335Z,45.34
2022-09-15T10:06:17.278Z,46.23
2022-09-15T10:08:59.394Z,46.79
2022-09-15T10:11:45.230Z,45.98
2022-09-15T10:14:32.561Z,48.19
2022-09-15T10:17:01.772Z,45.66
2022-09-15T10:19:31.958Z,46.28
2022-09-15T10:22:00.198Z,46.70
2022-09-15T10:24:27.513Z,46.18
2022-09-15T10:27:27.877Z,46.90
2022-09-15T10:29:56.448Z,45.01
2022-09-15T10:32:31.725Z,45.40
2022-09-15T10:35:04.198Z,44.24
2022-09-15T10:37:46.095Z,43.89
2022-09-15T10:40:33.644Z,44.49
2022-09-15T10:43:05.154Z,45.31
2022-09-15T10:45:40.241Z,44.96
2022-09-15T10:48:20.231Z,43.64
2022-09-15T10:51:21.848Z,43.23
2022-09-15T10:54:14.167Z,43.58
2022-09-15T10:56:44.218Z,43.82
2022-09-15T10:59:32.590Z,44.02
2022-09-15T11:02:19.208Z,44.01
2022-09-15T11:04:55.219Z,44.85
2022-09-15T11:07:28.855Z,45.78
2022-09-15T11:10:22.648Z,48.08
2022-09-15T11:13:04.451Z,49.02
2022-09-15T11:15:51.191Z,49.58
2022-09-15T11:18:40.742Z,50.80
2022-09-15T11:21:21.863Z,50.72
2022-09-15T11:23:58.086Z,51.81
2022-09-15T11:26:37.070Z,51.23
2022-09-15T11:29:07.863Z,52.51
2022-09-15T11:31:42.557Z,52.59
2022-09-15T11:34:34.614Z,52.78
2022-09-15T11:37:09.192Z,53.11
2022-09-15T11:40:07.427Z,53.44
2022-09-15T11:42:36.314Z,53.30
2022-09-15T11:45:04.186Z,53.00
2022-09-15T11:47:40.383Z,52.89
2022-09-15T11:50:11.061Z,54.52
2022-09-15T11:52:57.430Z,54.46
2022-09-15T11:55:25.276Z,54.24
2022-09-15T11:58:09.153Z,54.06
2022-09-15T12:00:43.403Z,55.41
2022-09-15T12:03:11.195Z,54.19
2022-09-15T12:05:49.802Z,54.67
2022-09-15T12:08:32.475Z,53.65
2022-09-15T12:11:02.099Z,54.03
2022-09-15T12:13:31.224Z,53.24
2022-09-15T12:16:00.695Z,55.07
2022-09-15T12:19:14.669Z,52.89
2022-09-15T12:21:56.996Z,53.37
2022-09-15T12:24:45.909Z,52.65
2022-09-15T12:27:18.258Z,54.75
2022-09-15T12:29:50.665Z,53.53
2022-09-15T12:32:18.698Z,53.25
2022-09-15T12:34:54.908Z,52.85
2022-09-15T12:37:24.361Z,52.84
2022-09-15T12:39:53.071Z,53.16
2022-09-15T12:42:25.599Z,53.88
2022-09-15T12:45:06.116Z,53.37
2022-09-15T12:47:41.989Z,53.48
2022-09-15T12:50:15.805Z,54.68
2022-09-15T12:52:46.595Z,57.76
2022-09-15T12:55:35.276Z,55.90
2022-09-15T12:58:14.703Z,55.35
2022-09-15T13:01:06.721Z,53.60
2022-09-15T13:40:37.634Z,61.12
2022-09-15T13:43:38.686Z,61.72
2022-09-15T13:46:30.750Z,62.05
2022-09-15T13:49:14.198Z,61.73
2022-09-15T13:51:49.265Z,60.82
2022-09-15T13:54:22.221Z,61.75
2022-09-15T13:56:53.365Z,61.56
2022-09-15T13:59:30.403Z,60.78
2022-09-15T14:01:59.705Z,61.03
2022-09-15T14:04:31.692Z,62.72
2022-09-15T14:07:01.824Z,62.66
2022-09-15T14:09:34.832Z,61.50
2022-09-15T14:12:16.043Z,61.66
2022-09-15T14:14:53.854Z,61.99
2022-09-15T14:17:28.897Z,61.38
2022-09-15T14:20:05.629Z,61.90
2022-09-15T14:22:35.405Z,62.61
2022-09-15T14:25:16.997Z,63.05
2022-09-15T14:27:52.539Z,62.62
2022-09-15T14:30:26.644Z,64.30
2022-09-15T14:32:59.673Z,64.07
2022-09-15T14:35:37.349Z,63.20
2022-09-15T14:38:06.652Z,64.70
2022-09-15T14:40:38.589Z,68.05
2022-09-15T14:43:29.126Z,68.42
2022-09-15T14:46:15.160Z,69.68
2022-09-15T14:48:47.131Z,71.08
2022-09-15T14:51:19.436Z,70.11
2022-09-15T14:53:55.379Z,71.80
2022-09-15T14:56:30.616Z,72.75
2022-09-15T14:59:02.307Z,71.00
2022-09-15T15:01:42.264Z,70.32
2022-09-15T15:04:41.293Z,71.94
2022-09-15T15:07:24.756Z,71.61
2022-09-15T15:10:39.033Z,70.83
2022-09-15T15:13:19.103Z,70.35
2022-09-15T15:15:48.202Z,70.66
2022-09-15T15:18:40.278Z,71.63
2022-09-15T15:21:44.799Z,71.57
2022-09-15T15:24:18.894Z,74.00
2022-09-15T15:26:51.964Z,72.79
2022-09-15T15:29:48.798Z,71.35
2022-09-15T15:32:22.627Z,70.39
2022-09-15T15:35:01.027Z,69.13
2022-09-15T15:37:32.422Z,69.19
2022-09-15T15:40:08.779Z,69.80
2022-09-15T15:42:37.051Z,69.43
2022-09-15T15:45:35.692Z,70.51
2022-09-15T15:48:18.415Z,69.70
2022-09-15T15:50:47.586Z,69.99
2022-09-15T15:53:23.853Z,69.88
2022-09-15T15:55:55.305Z,69.19
2022-09-15T15:58:24.098Z,70.70
2022-09-15T16:01:03.332Z,69.43
2022-09-15T16:03:35.270Z,69.55
2022-09-15T16:06:03.888Z,68.51
2022-09-15T16:09:01.747Z,67.52
2022-09-15T16:11:41.124Z,68.06
2022-09-15T16:14:39.683Z,68.43
2022-09-15T16:17:12.978Z,68.10
2022-09-15T16:19:44.272Z,69.86
2022-09-15T16:22:22.219Z,69.50
2022-09-15T16:25:01.279Z,68.37
2022-09-15T16:27:29.410Z,68.57
2022-09-15T16:30:03.438Z,68.65
2022-09-15T16:32:32.791Z,68.61
2022-09-15T16:35:05.652Z,67.81
2022-09-15T16:37:35.879Z,68.15
2022-09-15T16:40:08.155Z,69.87
2022-09-15T16:42:43.992Z,68.18
2022-09-15T16:48:15.719Z,68.59
2022-09-15T16:50:56.058Z,72.84
2022-09-15T16:53:41.442Z,69.15
2022-09-15T16:56:15.732Z,68.81
2022-09-15T16:58:48.303Z,68.02
2022-09-15T17:01:20.977Z,67.62
2022-09-15T17:03:50.171Z,68.29
2022-09-15T17:06:27.901Z,67.35
2022-09-15T17:08:58.950Z,66.96
2022-09-15T17:11:30.102Z,66.36
2022-09-15T17:13:58.206Z,70.32
2022-09-15T17:16:31.568Z,69.33
2022-09-15T17:19:00.070Z,70.92
2022-09-15T17:21:32.008Z,69.64
2022-09-15T17:24:02.821Z,68.96
2022-09-15T17:26:33.674Z,69.58
2022-09-15T17:29:02.007Z,68.29
2022-09-15T17:31:30.649Z,68.89
2022-09-15T17:34:02.566Z,68.59
2022-09-15T17:36:32.010Z,70.37
2022-09-15T17:39:00.370Z,72.40
2022-09-15T17:41:36.600Z,69.86
2022-09-15T17:44:16.207Z,69.73
2022-09-15T17:47:02.164Z,73.19
2022-09-15T17:49:37.066Z,74.38
2022-09-15T17:52:05.865Z,74.77
2022-09-15T17:54:39.899Z,73.27
2022-09-15T17:57:11.435Z,72.43
2022-09-15T17:59:41.290Z,73.20
2022-09-15T18:02:22.258Z,72.76
2022-09-15T18:04:53.242Z,75.57
2022-09-15T18:07:26.644Z,71.87
2022-09-15T18:10:05.168Z,74.66
2022-09-15T18:12:35.283Z,73.68
2022-09-15T18:15:06.602Z,76.20
2022-09-15T18:17:39.260Z,73.39
2022-09-15T18:20:23.369Z,71.59
2022-09-15T18:22:57.341Z,72.22
2022-09-15T18:25:59.271Z,70.60
2022-09-15T18:29:00.723Z,70.05
2022-09-15T18:31:38.821Z,69.86
2022-09-15T18:34:28.671Z,71.07
2022-09-15T18:37:01.344Z,71.54
2022-09-15T18:39:40.241Z,74.18
2022-09-15T18:42:14.262Z,72.94
2022-09-15T18:44:51.453Z,71.87
2022-09-15T18:47:28.695Z,72.37
2022-09-15T18:49:59.384Z,71.25
2022-09-15T18:52:32.061Z,70.84
2022-09-15T18:55:10.008Z,70.75
2022-09-15T18:57:46.841Z,69.70
2022-09-15T19:00:24.830Z,69.83
2022-09-15T19:03:09.397Z,69.23
2022-09-15T19:05:55.819Z,69.12
2022-09-15T19:08:43.268Z,69.72
2022-09-15T19:11:18.888Z,69.28
2022-09-15T19:13:55.514Z,71.19
2022-09-15T19:16:53.611Z,70.58
2022-09-15T19:19:36.325Z,70.64
2022-09-15T19:22:16.520Z,70.04
2022-09-15T19:25:15.335Z,69.31
2022-09-15T19:27:44.161Z,69.24
2022-09-15T19:30:21.767Z,71.22
2022-09-15T19:32:51.299Z,70.28
2022-09-15T19:35:22.098Z,69.37
2022-09-15T19:37:55.397Z,69.78
2022-09-15T19:40:31.881Z,69.69
2022-09-15T19:43:01.982Z,68.75
2022-09-15T19:45:47.271Z,68.84
2022-09-15T19:48:22.016Z,68.72
2022-09-15T19:51:01.698Z,68.39
2022-09-15T19:53:34.187Z,69.07
2022-09-15T19:56:11.986Z,67.93
2022-09-15T19:58:44.675Z,69.07
2022-09-15T20:01:24.333Z,68.49
2022-09-15T20:06:46.185Z,70.14
2022-09-15T20:09:18.776Z,69.35
2022-09-15T20:11:48.837Z,68.51
2022-09-15T20:14:20.796Z,69.50
2022-09-15T20:16:57.483Z,69.31
2022-09-15T20:19:31.558Z,69.50
2022-09-15T20:22:09.068Z,68.83
2022-09-15T20:24:44.310Z,68.60
2022-09-15T20:27:14.641Z,69.74
2022-09-15T20:29:47.908Z,69.88
2022-09-15T20:32:16.677Z,69.67
2022-09-15T20:34:45.229Z,71.06
2022-09-15T20:37:13.330Z,70.21
2022-09-15T20:39:41.366Z,70.03
2022-09-15T20:42:10.719Z,69.81
2022-09-15T20:44:39.143Z,70.15
2022-09-15T20:47:07.204Z,69.46
2022-09-15T20:49:35.814Z,68.51
2022-09-15T20:52:06.288Z,70.28
2022-09-15T20:54:34.940Z,69.70
2022-09-15T20:57:03.507Z,69.92
2022-09-15T20:59:32.105Z,69.20
2022-09-15T21:02:04.906Z,69.76
2022-09-15T21:04:33.966Z,69.67
2022-09-15T21:07:02.104Z,69.23
2022-09-15T21:09:31.667Z,69.62
2022-09-15T21:12:00.751Z,68.86
2022-09-15T21:14:29.138Z,69.46
2022-09-15T21:16:56.913Z,70.11
2022-09-15T21:19:28.074Z,70.88
2022-09-15T21:21:55.940Z,70.10
2022-09-15T21:24:24.790Z,70.05
2022-09-15T21:27:11.607Z,70.11
2022-09-15T21:29:41.671Z,70.39
2022-09-15T21:32:10.676Z,70.52
2022-09-15T21:34:38.605Z,70.75
2022-09-15T21:37:09.924Z,71.21
2022-09-15T21:39:37.841Z,70.20
2022-09-15T21:42:05.923Z,70.79
2022-09-15T21:44:33.681Z,71.25
2022-09-15T21:47:01.880Z,70.39
2022-09-15T21:49:30.155Z,70.79
2022-09-15T21:51:57.758Z,70.90
2022-09-15T21:54:25.940Z,71.13
2022-09-15T21:56:53.476Z,70.59
2022-09-15T21:59:21.029Z,70.21
2022-09-15T22:01:49.097Z,70.76
2022-09-15T22:04:17.235Z,69.67
2022-09-15T22:06:47.002Z,70.67
2022-09-15T22:09:15.980Z,69.46
2022-09-15T22:11:44.488Z,69.27
2022-09-15T22:14:13.195Z,71.48
2022-09-15T22:16:44.361Z,72.12
2022-09-15T22:19:13.315Z,71.45
2022-09-15T22:21:42.263Z,70.44
2022-09-15T22:24:12.275Z,69.67
2022-09-15T22:26:41.153Z,70.21
2022-09-15T22:29:09.251Z,70.00
2022-09-15T22:31:37.024Z,71.08
2022-09-15T22:34:05.027Z,71.43
2022-09-15T22:36:32.784Z,71.46
2022-09-15T22:39:05.040Z,70.79
2022-09-15T22:41:40.074Z,72.53
2022-09-15T22:44:17.768Z,72.59
2022-09-15T22:46:49.746Z,72.11
2022-09-15T22:49:17.365Z,74.19
2022-09-15T22:51:46.011Z,73.52
2022-09-15T22:54:13.572Z,71.66
2022-09-15T22:56:41.142Z,71.11
2022-09-15T22:59:13.200Z,71.17
2022-09-15T23:01:49.308Z,73.10
2022-09-15T23:04:17.516Z,74.24
2022-09-15T23:06:45.035Z,71.74
2022-09-15T23:09:13.247Z,71.96
2022-09-15T23:11:41.959Z,70.87
2022-09-15T23:14:15.323Z,71.05
2022-09-15T23:16:43.736Z,72.61
2022-09-15T23:19:14.583Z,71.63
2022-09-15T23:21:42.035Z,72.79
2022-09-15T23:24:12.394Z,70.38
2022-09-15T23:26:40.425Z,71.36
2022-09-15T23:29:08.185Z,72.75
2022-09-15T23:31:36.294Z,70.62
2022-09-15T23:34:06.609Z,70.71
2022-09-15T23:36:34.048Z,71.30
2022-09-15T23:39:01.838Z,73.29
2022-09-15T23:41:29.744Z,73.26
2022-09-15T23:43:59.944Z,74.73
2022-09-15T23:46:27.872Z,74.43
2022-09-15T23:48:55.880Z,73.08
2022-09-15T23:51:23.917Z,72.89
2022-09-15T23:53:52.338Z,72.33
2022-09-15T23:56:22.201Z,73.35
2022-09-15T23:58:49.730Z,71.95
